Time;durP1;ratioP1;P1;durP2;ratioP2;P2;SDS_P1;SDS_P2;PMS_P1;PMS_P2;Temp;Humidity;BMP_temperature;BMP_pressure;BME280_temperature;BME280_humidity;BME280_pressure;Samples;Min_cycle;Max_cycle;Signal;HPM_P1;HPM_P2
2022/02/13 00:00:38;;;;;;;7.45;3.83;;;;;;;8.31;46.58;103147.91;2098517;28;20180;-71
2022/02/13 00:01:38;;;;;;;6.03;4.10;;;;;;;8.36;46.66;103144.09;2097755;28;20180;-71
2022/02/13 00:02:40;;;;;;;6.80;4.20;;;;;;;8.18;46.46;103128.97;2097422;28;20292;-71
2022/02/13 00:03:41;;;;;;;6.43;4.10;;;;;;;8.38;46.23;103150.06;2098239;28;20278;-71
2022/02/13 00:04:41;;;;;;;5.00;3.40;;;;;;;8.49;46.54;103153.88;2098192;28;20185;-71
2022/02/13 00:05:42;;;;;;;7.63;3.73;;;;;;;8.49;46.48;103151.94;2098702;28;20262;-71
2022/02/13 00:06:42;;;;;;;5.90;3.70;;;;;;;8.41;46.40;103155.66;2098386;28;20630;-71
2022/02/13 00:07:43;;;;;;;5.60;3.70;;;;;;;8.45;45.80;103155.78;2098714;28;20744;-71
2022/02/13 00:08:44;;;;;;;5.87;3.70;;;;;;;8.51;46.75;103148.81;2098335;28;20664;-71
2022/02/13 00:09:44;;;;;;;9.93;4.10;;;;;;;8.52;46.00;103145.69;2098231;28;20201;-71
2022/02/13 00:10:45;;;;;;;6.30;3.80;;;;;;;8.59;46.05;103148.63;2097848;28;20193;-71
2022/02/13 00:11:45;;;;;;;5.40;3.53;;;;;;;8.64;46.43;103145.59;2097730;28;20573;-71
2022/02/13 00:12:46;;;;;;;5.90;3.53;;;;;;;8.67;46.56;103144.84;2097514;28;20187;-71
2022/02/13 00:13:47;;;;;;;5.07;3.43;;;;;;;8.70;45.92;103146.91;2098466;28;20185;-71
2022/02/13 00:14:49;;;;;;;5.50;3.55;;;;;;;8.74;46.21;103145.03;2098204;28;20663;-71
2022/02/13 00:15:49;;;;;;;6.10;3.50;;;;;;;7.64;45.85;102965.88;2098516;28;20189;-71
2022/02/13 00:16:50;;;;;;;5.87;4.00;;;;;;;8.83;45.39;103142.06;2098369;28;20433;-71
2022/02/13 00:17:50;;;;;;;6.20;3.63;;;;;;;8.87;45.46;103140.97;2098335;28;20187;-71
2022/02/13 00:18:51;;;;;;;6.63;3.60;;;;;;;8.91;44.95;103141.09;2098262;28;20217;-71
2022/02/13 00:19:52;;;;;;;5.27;3.70;;;;;;;8.76;45.16;103112.28;2098217;28;20244;-71
2022/02/13 00:20:53;;;;;;;5.73;3.70;;;;;;;8.99;45.21;103142.84;2097258;28;20190;-71
2022/02/13 00:21:53;;;;;;;5.20;3.37;;;;;;;9.02;45.05;103140.16;2098058;28;20408;-71
2022/02/13 00:22:54;;;;;;;7.50;3.57;;;;;;;9.06;44.88;103152.09;2097679;28;20218;-71
2022/02/13 00:23:54;;;;;;;5.73;3.57;;;;;;;9.10;44.32;103141.91;2098566;28;20191;-71
2022/02/13 00:24:55;;;;;;;6.30;3.80;;;;;;;9.07;44.43;103137.09;2098036;28;20205;-71
2022/02/13 00:25:55;;;;;;;6.20;3.77;;;;;;;9.05;45.03;103135.84;2098588;28;20195;-71
2022/02/13 00:26:56;;;;;;;5.13;3.50;;;;;;;9.11;45.40;103140.75;2098127;28;20205;-71
2022/02/13 00:27:57;;;;;;;8.77;3.53;;;;;;;9.06;44.00;103129.97;2098592;28;20578;-71
2022/02/13 00:28:57;;;;;;;6.03;3.50;;;;;;;9.14;44.48;103139.22;2098075;28;20296;-71
2022/02/13 00:29:58;;;;;;;6.33;3.50;;;;;;;9.15;44.12;103144.41;2098143;28;20652;-71
2022/02/13 00:30:58;;;;;;;5.37;3.47;;;;;;;9.17;44.58;103125.47;2097234;28;20187;-69
2022/02/13 00:31:59;;;;;;;4.37;3.17;;;;;;;9.21;43.95;103131.88;2097554;28;20174;-69
2022/02/13 00:32:59;;;;;;;5.30;3.30;;;;;;;9.16;43.58;103137.69;2097661;28;20240;-69
2022/02/13 00:34:00;;;;;;;5.57;3.43;;;;;;;9.01;43.62;103141.31;2098574;28;20179;-69
2022/02/13 00:35:00;;;;;;;6.93;3.60;;;;;;;8.99;43.66;103140.88;2088970;28;20597;-69
2022/02/13 00:36:01;;;;;;;5.37;3.77;;;;;;;7.72;43.96;102942.03;2089573;28;20218;-69
2022/02/13 00:37:03;;;;;;;5.30;3.63;;;;;;;8.99;44.06;103143.66;2098248;28;20172;-69
2022/02/13 00:38:04;;;;;;;5.80;3.10;;;;;;;9.04;44.25;103170.22;2089433;28;20494;-69
2022/02/13 00:39:06;;;;;;;6.33;3.63;;;;;;;8.30;43.78;103033.03;2089170;28;20445;-69
2022/02/13 00:40:08;;;;;;;5.45;2.97;;;;;;;8.92;43.72;103140.69;2098004;28;20935;-69
2022/02/13 00:41:09;;;;;;;5.93;3.70;;;;;;;8.91;44.32;103143.84;2097090;28;20775;-69
2022/02/13 00:42:10;;;;;;;5.83;3.30;;;;;;;8.48;44.98;103069.38;2097402;28;20730;-69
2022/02/13 00:43:10;;;;;;;7.03;3.83;;;;;;;8.99;44.87;103137.31;2088456;28;20202;-69
2022/02/13 00:44:11;;;;;;;8.17;3.97;;;;;;;9.04;44.71;103129.53;2089177;28;20418;-69
2022/02/13 00:45:12;;;;;;;5.73;4.03;;;;;;;8.38;43.45;103043.09;2088774;28;20196;-69
2022/02/13 00:46:13;;;;;;;5.13;3.70;;;;;;;8.93;43.98;103139.56;2089252;28;20679;-69
2022/02/13 00:47:14;;;;;;;5.43;3.70;;;;;;;8.81;44.19;103131.38;2098206;28;20539;-69
2022/02/13 00:48:14;;;;;;;6.80;4.10;;;;;;;8.80;44.13;103135.31;2098155;28;20185;-69
2022/02/13 00:49:15;;;;;;;7.30;3.80;;;;;;;8.86;43.90;103138.59;2098159;28;20181;-69
2022/02/13 00:50:15;;;;;;;6.10;3.73;;;;;;;8.14;44.63;103017.59;2097945;28;20235;-69
2022/02/13 00:51:16;;;;;;;6.33;3.83;;;;;;;8.95;44.49;103145.53;2097037;28;20564;-69
2022/02/13 00:52:16;;;;;;;7.23;3.63;;;;;;;9.01;44.46;103140.50;2097373;28;20625;-69
2022/02/13 00:53:17;;;;;;;6.33;3.87;;;;;;;9.02;44.65;103136.59;2097575;28;20184;-69
2022/02/13 00:54:17;;;;;;;7.03;3.80;;;;;;;8.99;43.45;103145.59;2098166;28;20720;-69
2022/02/13 00:55:18;;;;;;;5.77;4.00;;;;;;;8.96;43.95;103130.53;2097901;28;20186;-69
2022/02/13 00:56:20;;;;;;;6.90;4.00;;;;;;;8.97;44.54;103140.44;2098121;28;20208;-69
2022/02/13 00:57:21;;;;;;;7.18;4.05;;;;;;;8.99;43.87;103134.53;2089180;28;20190;-69
2022/02/13 00:58:21;;;;;;;7.77;4.00;;;;;;;8.98;44.25;103136.50;2089353;28;20185;-69
2022/02/13 00:59:22;;;;;;;6.10;3.83;;;;;;;8.97;43.62;103123.03;2098118;28;20178;-69
2022/02/13 01:00:22;;;;;;;6.70;4.03;;;;;;;8.94;43.52;103137.59;2097554;28;20187;-69
2022/02/13 01:01:23;;;;;;;6.10;4.10;;;;;;;8.84;43.95;103136.19;2097144;28;20186;-69
2022/02/13 01:02:23;;;;;;;6.43;3.87;;;;;;;7.95;43.63;103010.03;2097227;28;20198;-69
2022/02/13 01:03:24;;;;;;;6.47;4.30;;;;;;;8.52;44.17;103136.59;2097767;28;20261;-69
2022/02/13 01:04:25;;;;;;;6.03;4.00;;;;;;;8.41;45.11;103099.63;2098090;28;20588;-69
2022/02/13 01:05:25;;;;;;;6.97;4.13;;;;;;;8.64;44.26;103139.25;2088960;28;20182;-69
2022/02/13 01:06:27;;;;;;;7.00;3.90;;;;;;;8.66;45.10;103134.19;2089131;28;20498;-69
2022/02/13 01:07:27;;;;;;;5.47;4.07;;;;;;;8.74;44.55;103138.69;2097992;28;20653;-69
2022/02/13 01:08:28;;;;;;;6.50;4.07;;;;;;;8.79;44.38;103139.22;2097949;28;20252;-69
2022/02/13 01:09:29;;;;;;;7.95;4.03;;;;;;;8.45;44.02;103083.94;2097636;28;20670;-69
2022/02/13 01:10:31;;;;;;;9.77;4.30;;;;;;;8.75;45.15;103137.53;2097982;28;20587;-69
2022/02/13 01:11:32;;;;;;;7.03;4.15;;;;;;;8.77;45.48;103146.28;2097188;28;20695;-69
2022/02/13 01:12:32;;;;;;;7.67;3.73;;;;;;;8.77;44.44;103138.78;2097107;28;20180;-71
2022/02/13 01:13:34;;;;;;;6.63;3.60;;;;;;;8.77;44.13;103143.53;2097748;28;20273;-71
2022/02/13 01:14:34;;;;;;;6.57;4.15;;;;;;;8.73;43.79;103146.22;2097796;28;20186;-71
2022/02/13 01:15:35;;;;;;;10.47;4.30;;;;;;;8.61;44.64;103140.75;2088886;28;20729;-71
2022/02/13 01:16:36;;;;;;;6.83;3.90;;;;;;;8.60;44.22;103147.47;2088929;28;20212;-71
2022/02/13 01:17:37;;;;;;;6.82;4.35;;;;;;;8.56;44.25;103137.50;2098047;28;20183;-71
2022/02/13 01:18:37;;;;;;;9.10;5.07;;;;;;;8.43;44.78;103136.78;2097940;28;20181;-71
2022/02/13 01:19:38;;;;;;;7.23;4.43;;;;;;;7.12;45.16;102965.28;2097872;28;20552;-71
2022/02/13 01:20:40;;;;;;;7.43;4.40;;;;;;;8.20;45.15;103135.78;2097884;28;20702;-71
2022/02/13 01:21:41;;;;;;;7.05;4.65;;;;;;;8.17;45.26;103138.44;2097229;28;20188;-71
2022/02/13 01:22:42;;;;;;;7.20;4.47;;;;;;;7.11;45.40;102991.28;2097061;28;20241;-71
2022/02/13 01:23:43;;;;;;;8.87;5.07;;;;;;;8.05;46.23;103139.31;2097924;28;20199;-71
2022/02/13 01:24:44;;;;;;;10.15;4.93;;;;;;;8.05;45.84;103133.78;2097796;28;20677;-71
2022/02/13 01:25:44;;;;;;;6.70;4.90;;;;;;;8.04;45.90;103125.88;2097930;28;20631;-71
2022/02/13 01:26:45;;;;;;;7.00;4.80;;;;;;;7.88;46.21;103136.06;2097671;28;20180;-71
2022/02/13 01:27:46;;;;;;;7.43;5.07;;;;;;;7.74;46.33;103136.50;2098158;28;20179;-71
2022/02/13 01:28:47;;;;;;;7.53;4.88;;;;;;;7.75;47.45;103123.50;2097639;28;20191;-71
2022/02/13 01:29:47;;;;;;;7.00;4.53;;;;;;;7.48;46.76;103063.63;2097603;28;20317;-71
2022/02/13 01:30:48;;;;;;;8.53;4.57;;;;;;;7.94;45.74;103135.47;2096770;28;20203;-71
2022/02/13 01:31:49;;;;;;;10.93;5.40;;;;;;;7.79;47.00;103154.78;2097474;28;20183;-71
2022/02/13 01:32:50;;;;;;;15.02;5.50;;;;;;;7.87;46.79;103138.03;2097204;28;20267;-71
2022/02/13 01:33:50;;;;;;;9.20;5.50;;;;;;;6.83;46.45;102962.91;2097941;28;20759;-71
2022/02/13 01:34:51;;;;;;;7.00;4.83;;;;;;;7.77;45.95;103133.03;2097740;28;20249;-71
2022/02/13 01:35:51;;;;;;;10.67;5.40;;;;;;;7.74;46.01;103132.94;2097709;28;20180;-71
2022/02/13 01:36:52;;;;;;;9.07;4.63;;;;;;;7.61;47.13;103123.91;2097557;28;20185;-71
2022/02/13 01:37:52;;;;;;;8.50;5.30;;;;;;;6.81;46.50;103000.25;2097921;28;20181;-71
2022/02/13 01:38:53;;;;;;;7.57;4.83;;;;;;;7.18;46.94;103074.19;2088705;28;20660;-71
2022/02/13 01:39:53;;;;;;;8.23;5.07;;;;;;;7.41;47.06;103132.38;2088875;28;20185;-71
2022/02/13 01:40:54;;;;;;;8.17;4.93;;;;;;;7.34;46.92;103146.78;2096507;28;20249;-71
2022/02/13 01:41:55;;;;;;;9.02;5.53;;;;;;;7.37;47.07;103129.53;2097306;28;20644;-71
2022/02/13 01:42:56;;;;;;;7.60;5.30;;;;;;;7.38;46.77;103124.81;2097135;28;20188;-71
2022/02/13 01:43:57;;;;;;;12.80;5.70;;;;;;;7.22;46.80;103119.22;2097924;28;20262;-71
2022/02/13 01:44:58;;;;;;;8.10;5.43;;;;;;;7.20;47.32;103129.81;2097492;28;20272;-71
2022/02/13 01:45:59;;;;;;;9.43;6.00;;;;;;;7.24;46.94;103116.13;2097950;28;20175;-71
2022/02/13 01:47:01;;;;;;;11.93;5.83;;;;;;;7.29;46.82;103124.94;2097406;28;22872;-71
2022/02/13 01:48:01;;;;;;;9.20;5.75;;;;;;;6.46;46.76;102991.72;2088848;28;20284;-71
2022/02/13 01:49:02;;;;;;;10.00;5.10;;;;;;;7.36;47.07;103127.94;2088624;28;20189;-71
2022/02/13 01:50:06;;;;;;;9.17;5.37;;;;;;;6.58;47.15;102999.16;2097453;28;20184;-71
2022/02/13 01:51:07;;;;;;;8.63;5.22;;;;;;;7.43;46.35;103122.59;2096599;28;20188;-71
2022/02/13 01:52:07;;;;;;;7.73;5.30;;;;;;;7.26;46.83;103131.19;2096907;28;20924;-71
2022/02/13 01:53:11;;;;;;;9.70;5.73;;;;;;;6.76;46.66;103059.16;2097339;28;20215;-71
2022/02/13 01:54:12;;;;;;;11.35;6.15;;;;;;;7.12;46.66;103086.63;2097791;28;20180;-71
2022/02/13 01:55:13;;;;;;;9.53;5.80;;;;;;;7.28;46.83;103125.31;2097982;28;20286;-71
2022/02/13 01:56:13;;;;;;;10.50;5.80;;;;;;;7.16;46.89;103126.16;2096772;28;20183;-71
2022/02/13 01:57:14;;;;;;;9.10;6.40;;;;;;;6.85;46.71;103084.66;2097551;28;20188;-71
2022/02/13 01:58:16;;;;;;;9.80;6.17;;;;;;;7.08;47.54;103134.56;2097583;28;20646;-71
2022/02/13 01:59:16;;;;;;;8.60;5.63;;;;;;;7.09;46.97;103139.75;2097569;28;20270;-71
2022/02/13 02:00:17;;;;;;;9.37;5.80;;;;;;;7.20;47.33;103131.75;2088190;28;20193;-71
2022/02/13 02:01:18;;;;;;;10.17;6.53;;;;;;;7.22;46.13;103122.00;2087740;28;20192;-71
2022/02/13 02:02:18;;;;;;;9.80;5.87;;;;;;;6.35;45.65;102971.31;2096941;28;20187;-71
2022/02/13 02:03:19;;;;;;;8.03;5.80;;;;;;;7.08;46.37;103112.50;2097420;28;20188;-71
2022/02/13 02:04:19;;;;;;;13.77;5.70;;;;;;;7.02;46.19;103120.19;2097579;28;20827;-71
2022/02/13 02:05:20;;;;;;;8.70;5.80;;;;;;;5.73;47.01;102937.03;2097552;28;20246;-71
2022/02/13 02:06:20;;;;;;;10.33;6.00;;;;;;;6.88;46.60;103121.75;2097544;28;20265;-71
2022/02/13 02:07:21;;;;;;;9.77;6.10;;;;;;;6.63;47.12;103109.94;2097696;28;20264;-71
2022/02/13 02:08:21;;;;;;;10.43;6.50;;;;;;;6.72;46.98;103129.13;2097647;28;20180;-71
2022/02/13 02:09:25;;;;;;;9.40;5.63;;;;;;;5.63;47.23;102956.75;2097522;28;20214;-71
2022/02/13 02:10:26;;;;;;;6.90;5.22;;;;;;;6.66;47.79;103097.44;2097419;28;20286;-71
2022/02/13 02:11:26;;;;;;;7.97;5.63;;;;;;;6.98;47.93;103130.31;2096638;28;20646;-71
2022/02/13 02:12:27;;;;;;;9.83;5.50;;;;;;;6.96;46.83;103131.81;2096779;28;20194;-71
2022/02/13 02:13:27;;;;;;;9.47;5.93;;;;;;;6.76;46.87;103116.25;2097112;28;20191;-71
2022/02/13 02:14:28;;;;;;;8.40;5.60;;;;;;;6.79;46.69;103132.09;2097448;28;20262;-71
2022/02/13 02:15:29;;;;;;;8.47;5.87;;;;;;;6.83;46.46;103135.75;2097516;28;20788;-71
2022/02/13 02:16:29;;;;;;;9.13;5.57;;;;;;;6.74;46.94;103132.31;2097357;28;20258;-71
2022/02/13 02:17:30;;;;;;;8.70;5.00;;;;;;;6.59;46.91;103113.72;2097493;28;20184;-71
2022/02/13 02:18:31;;;;;;;7.83;5.37;;;;;;;6.77;46.67;103142.66;2097318;28;20199;-71
2022/02/13 02:19:31;;;;;;;9.10;5.20;;;;;;;5.74;46.61;102960.69;2097127;28;20572;-71
2022/02/13 02:20:32;;;;;;;10.80;5.80;;;;;;;6.75;46.24;103139.44;2097449;28;20191;-71
2022/02/13 02:21:33;;;;;;;7.43;5.03;;;;;;;6.65;46.45;103137.94;2096488;28;20187;-71
2022/02/13 02:22:33;;;;;;;6.97;5.27;;;;;;;6.67;47.06;103137.63;2096457;28;20739;-71
2022/02/13 02:23:37;;;;;;;8.37;5.23;;;;;;;6.73;46.82;103144.50;2097202;28;20642;-71
2022/02/13 02:24:38;;;;;;;7.90;5.30;;;;;;;5.57;46.49;102964.44;2097520;28;20191;-71
2022/02/13 02:25:39;;;;;;;6.73;4.80;;;;;;;6.36;46.19;103093.31;2097476;28;20273;-71
2022/02/13 02:26:40;;;;;;;10.23;5.65;;;;;;;6.57;46.64;103129.81;2097120;28;20194;-71
2022/02/13 02:27:40;;;;;;;8.73;5.00;;;;;;;6.62;46.27;103146.91;2097498;28;20225;-71
2022/02/13 02:28:41;;;;;;;6.73;4.97;;;;;;;5.96;46.68;103020.78;2097269;28;20188;-71
2022/02/13 02:29:42;;;;;;;7.57;4.90;;;;;;;6.77;46.66;103134.38;2097316;28;20187;-71
2022/02/13 02:30:42;;;;;;;8.07;4.80;;;;;;;6.74;46.31;103133.13;2096803;28;20578;-71
2022/02/13 02:31:43;;;;;;;7.87;5.00;;;;;;;6.67;46.56;103135.63;2096709;28;20203;-71
2022/02/13 02:32:43;;;;;;;8.50;5.27;;;;;;;6.72;46.37;103142.91;2096383;28;20190;-71
2022/02/13 02:33:44;;;;;;;6.37;4.60;;;;;;;6.65;46.00;103121.41;2097350;28;20198;-71
2022/02/13 02:34:45;;;;;;;6.47;4.60;;;;;;;6.71;45.94;103142.06;2088207;28;20223;-71
2022/02/13 02:35:47;;;;;;;7.10;4.90;;;;;;;6.73;46.18;103142.56;2088661;28;20187;-71
2022/02/13 02:36:48;;;;;;;8.65;4.95;;;;;;;5.84;45.58;103010.56;2097264;28;20267;-71
2022/02/13 02:37:48;;;;;;;7.73;5.10;;;;;;;6.48;46.30;103129.13;2097245;28;20189;-71
2022/02/13 02:38:49;;;;;;;6.20;4.23;;;;;;;6.54;46.38;103131.31;2097321;28;20187;-71
2022/02/13 02:39:49;;;;;;;8.03;4.70;;;;;;;6.67;46.36;103137.63;2096937;28;20203;-71
2022/02/13 02:40:50;;;;;;;8.43;4.47;;;;;;;6.64;46.46;103150.13;2096171;28;20254;-71
2022/02/13 02:41:51;;;;;;;7.90;4.30;;;;;;;6.72;46.85;103138.16;2096717;28;20175;-71
2022/02/13 02:42:51;;;;;;;6.07;4.33;;;;;;;6.74;46.56;103135.06;2096657;28;20196;-71
2022/02/13 02:43:52;;;;;;;8.03;4.27;;;;;;;6.90;46.63;103147.00;2097443;28;20187;-71
2022/02/13 02:44:53;;;;;;;6.43;4.20;;;;;;;6.87;45.82;103151.25;2097142;28;20713;-71
2022/02/13 02:45:53;;;;;;;7.50;4.67;;;;;;;6.89;45.97;103153.66;2097453;28;20722;-71
2022/02/13 02:46:54;;;;;;;6.53;3.83;;;;;;;6.86;45.53;103146.06;2096976;28;20697;-71
2022/02/13 02:47:54;;;;;;;8.90;4.37;;;;;;;6.80;45.24;103150.22;2097171;28;20189;-71
2022/02/13 02:48:55;;;;;;;6.60;4.10;;;;;;;6.01;45.64;103024.09;2097110;28;20635;-71
2022/02/13 02:49:56;;;;;;;5.50;4.20;;;;;;;6.93;46.25;103155.38;2097152;28;20560;-71
2022/02/13 02:50:56;;;;;;;6.87;4.40;;;;;;;6.94;45.55;103134.94;2096171;28;20505;-71
2022/02/13 02:51:57;;;;;;;6.17;4.00;;;;;;;7.15;45.80;103152.13;2096723;28;20205;-71
2022/02/13 02:52:57;;;;;;;6.93;4.17;;;;;;;7.21;45.62;103145.22;2096783;28;20195;-71
2022/02/13 02:53:58;;;;;;;5.73;4.53;;;;;;;7.25;44.82;103154.41;2097393;28;20217;-71
2022/02/13 02:54:59;;;;;;;6.07;3.90;;;;;;;7.20;44.92;103140.84;2097042;28;20188;-71
2022/02/13 02:55:59;;;;;;;7.47;4.60;;;;;;;7.31;44.49;103146.66;2097278;28;20685;-71
2022/02/13 02:57:00;;;;;;;7.07;4.13;;;;;;;7.32;44.52;103151.84;2097035;28;20574;-71
2022/02/13 02:58:00;;;;;;;7.93;4.40;;;;;;;7.28;44.18;103153.69;2097144;28;20798;-71
2022/02/13 02:59:01;;;;;;;6.80;4.10;;;;;;;7.33;44.85;103155.41;2097054;28;20187;-71
2022/02/13 03:00:04;;;;;;;6.70;3.87;;;;;;;7.31;44.08;103153.00;2097095;28;20209;-71
2022/02/13 03:01:05;;;;;;;6.22;4.00;;;;;;;7.22;44.15;103154.31;2095825;28;20331;-71
2022/02/13 03:02:05;;;;;;;6.93;3.87;;;;;;;7.31;44.82;103152.19;2096315;28;20191;-71
2022/02/13 03:03:06;;;;;;;5.43;3.87;;;;;;;6.40;44.69;103001.38;2096657;28;20183;-71
2022/02/13 03:04:06;;;;;;;6.60;3.83;;;;;;;7.39;44.32;103157.56;2097390;28;20672;-71
2022/02/13 03:05:07;;;;;;;6.77;3.90;;;;;;;7.33;45.00;103167.25;2097117;28;20198;-71
2022/02/13 03:06:08;;;;;;;5.40;3.47;;;;;;;7.37;43.90;103159.06;2097374;28;20211;-71
2022/02/13 03:07:09;;;;;;;5.70;3.77;;;;;;;7.40;44.18;103152.84;2097069;28;20203;-71
2022/02/13 03:08:09;;;;;;;6.80;3.90;;;;;;;7.43;44.04;103154.94;2096911;28;20203;-71
2022/02/13 03:09:10;;;;;;;5.13;3.50;;;;;;;6.94;44.24;103077.03;2097264;28;20187;-71
2022/02/13 03:10:10;;;;;;;6.17;4.03;;;;;;;7.47;44.86;103158.56;2096859;28;20202;-71
2022/02/13 03:11:11;;;;;;;5.53;3.93;;;;;;;7.01;44.24;103081.94;2096079;28;20188;-71
2022/02/13 03:12:12;;;;;;;7.13;3.80;;;;;;;7.57;44.24;103164.41;2096504;28;20659;-71
2022/02/13 03:13:14;;;;;;;5.32;3.65;;;;;;;7.56;43.76;103164.75;2096770;28;20657;-71
2022/02/13 03:14:15;;;;;;;7.05;4.00;;;;;;;7.55;43.25;103163.97;2097328;28;20220;-71
2022/02/13 03:15:15;;;;;;;5.10;3.40;;;;;;;7.42;43.61;103167.91;2097007;28;20215;-71
2022/02/13 03:16:16;;;;;;;5.30;3.53;;;;;;;7.01;44.37;103112.28;2097070;28;20200;-71
2022/02/13 03:17:16;;;;;;;5.47;3.60;;;;;;;7.34;43.42;103168.84;2097052;28;20183;-71
2022/02/13 03:18:18;;;;;;;6.50;3.70;;;;;;;7.26;43.24;103158.75;2096884;28;20192;-71
2022/02/13 03:19:18;;;;;;;5.25;3.33;;;;;;;6.83;43.66;103105.44;2097089;28;20178;-71
2022/02/13 03:20:19;;;;;;;5.50;3.80;;;;;;;6.98;43.64;103144.09;2096883;28;20212;-71
2022/02/13 03:21:19;;;;;;;5.77;3.80;;;;;;;7.24;43.73;103165.78;2096094;28;20665;-71
2022/02/13 03:22:20;;;;;;;6.40;3.53;;;;;;;7.26;43.77;103166.22;2096248;28;20627;-71
2022/02/13 03:23:20;;;;;;;5.40;3.33;;;;;;;7.26;43.98;103175.31;2096649;28;20182;-71
2022/02/13 03:24:21;;;;;;;5.50;3.20;;;;;;;7.17;43.51;103173.84;2097202;28;20262;-71
2022/02/13 03:25:22;;;;;;;6.20;3.60;;;;;;;5.96;43.37;102996.03;2097140;28;20190;-71
2022/02/13 03:26:24;;;;;;;5.57;3.20;;;;;;;6.95;44.81;103177.91;2097167;28;20269;-71
2022/02/13 03:27:28;;;;;;;6.03;3.33;;;;;;;6.95;44.70;103166.06;2097069;28;20216;-71
2022/02/13 03:28:28;;;;;;;5.78;3.53;;;;;;;6.93;44.60;103168.38;2096906;28;20283;-71
2022/02/13 03:29:29;;;;;;;5.07;3.33;;;;;;;6.45;44.50;103082.97;2096868;28;20701;-71
2022/02/13 03:30:30;;;;;;;4.90;3.07;;;;;;;7.01;44.53;103170.19;2097026;28;20607;-71
2022/02/13 03:31:30;;;;;;;5.40;3.07;;;;;;;7.01;43.87;103170.19;2096012;28;20222;-71
2022/02/13 03:32:31;;;;;;;5.97;3.60;;;;;;;6.36;44.00;103057.50;2096250;28;20183;-71
2022/02/13 03:33:31;;;;;;;4.57;3.30;;;;;;;6.86;43.54;103149.66;2087638;28;20188;-71
2022/02/13 03:34:32;;;;;;;4.77;3.10;;;;;;;6.95;44.58;103168.81;2088179;28;20195;-71
2022/02/13 03:35:33;;;;;;;5.10;3.27;;;;;;;5.94;43.99;103025.84;2097350;28;20703;-71
2022/02/13 03:36:34;;;;;;;4.57;3.13;;;;;;;6.99;44.66;103178.00;2096859;28;20265;-71
2022/02/13 03:37:34;;;;;;;7.83;3.20;;;;;;;7.08;45.56;103175.94;2097141;28;20557;-71
2022/02/13 03:38:35;;;;;;;4.37;3.00;;;;;;;7.15;44.49;103182.47;2096624;28;20214;-71
2022/02/13 03:39:36;;;;;;;5.17;3.00;;;;;;;7.14;44.60;103174.53;2096795;28;20213;-71
2022/02/13 03:40:38;;;;;;;4.22;2.90;;;;;;;7.21;44.15;103174.75;2097026;28;20283;-71
2022/02/13 03:41:38;;;;;;;4.55;3.10;;;;;;;7.15;43.79;103176.13;2087307;28;20211;-71
2022/02/13 03:42:39;;;;;;;5.50;3.60;;;;;;;7.10;43.57;103182.72;2087243;28;20686;-71
2022/02/13 03:43:40;;;;;;;3.93;2.97;;;;;;;7.00;44.48;103172.16;2096844;28;20187;-71
2022/02/13 03:44:41;;;;;;;4.87;3.27;;;;;;;7.08;44.67;103190.50;2096771;28;20179;-71
2022/02/13 03:45:41;;;;;;;6.05;3.25;;;;;;;7.09;43.91;103170.06;2097165;28;20269;-71
2022/02/13 03:46:42;;;;;;;6.80;3.43;;;;;;;6.95;43.95;103169.63;2096909;28;20249;-71
2022/02/13 03:47:43;;;;;;;5.03;3.03;;;;;;;6.82;44.01;103170.78;2097198;28;20619;-71
2022/02/13 03:48:44;;;;;;;5.57;3.30;;;;;;;6.79;44.36;103163.22;2096556;28;20190;-71
2022/02/13 03:49:44;;;;;;;5.07;3.47;;;;;;;5.78;44.40;103003.66;2096844;28;20190;-71
2022/02/13 03:50:45;;;;;;;5.90;3.30;;;;;;;6.73;44.32;103174.81;2087255;28;20179;-71
2022/02/13 03:51:45;;;;;;;4.33;3.10;;;;;;;6.75;45.26;103173.31;2087692;28;20692;-71
2022/02/13 03:52:46;;;;;;;4.53;3.17;;;;;;;6.35;44.99;103095.25;2095986;28;20205;-71
2022/02/13 03:53:46;;;;;;;5.40;3.10;;;;;;;5.79;44.81;102990.72;2097117;28;20244;-71
2022/02/13 03:54:47;;;;;;;5.07;3.07;;;;;;;6.07;44.77;103038.47;2096909;28;20214;-71
2022/02/13 03:55:48;;;;;;;5.20;3.00;;;;;;;6.46;44.63;103090.09;2097068;28;20194;-71
2022/02/13 03:56:48;;;;;;;4.53;3.20;;;;;;;7.02;45.18;103166.28;2096915;28;20190;-71
2022/02/13 03:57:50;;;;;;;4.13;2.80;;;;;;;6.52;44.32;103081.22;2096996;28;20180;-71
2022/02/13 03:58:50;;;;;;;5.05;3.08;;;;;;;7.21;45.21;103180.25;2096458;28;20209;-71
2022/02/13 03:59:51;;;;;;;5.00;3.00;;;;;;;7.25;44.50;103176.47;2096749;28;20190;-71
2022/02/13 04:00:51;;;;;;;4.87;3.10;;;;;;;7.32;44.25;103184.94;2095991;28;20621;-71
2022/02/13 04:01:52;;;;;;;3.83;2.83;;;;;;;7.36;44.20;103185.03;2087354;28;20275;-71
2022/02/13 04:02:55;;;;;;;5.37;3.20;;;;;;;7.01;44.40;103118.59;2087496;28;20195;-71
2022/02/13 04:03:55;;;;;;;5.45;2.92;;;;;;;7.38;43.77;103188.28;2096934;28;20269;-71
2022/02/13 04:04:57;;;;;;;5.13;3.00;;;;;;;7.33;43.53;103183.78;2096858;28;20206;-71
2022/02/13 04:05:58;;;;;;;4.68;3.00;;;;;;;7.27;43.29;103190.72;2096976;28;20179;-71
2022/02/13 04:06:58;;;;;;;7.07;3.03;;;;;;;6.32;43.03;103051.91;2096600;28;20283;-71
2022/02/13 04:07:59;;;;;;;4.37;2.77;;;;;;;7.13;44.30;103187.50;2097002;28;20174;-71
2022/02/13 04:08:59;;;;;;;4.27;3.10;;;;;;;5.96;43.35;103027.13;2096585;28;20233;-71
2022/02/13 04:10:00;;;;;;;4.77;2.87;;;;;;;6.90;44.17;103183.66;2096829;28;20266;-71
2022/02/13 04:11:01;;;;;;;4.93;2.80;;;;;;;6.82;43.94;103186.53;2095704;28;20198;-71
2022/02/13 04:12:02;;;;;;;5.43;3.22;;;;;;;6.87;44.73;103189.06;2096165;28;20252;-71
2022/02/13 04:13:03;;;;;;;4.40;2.93;;;;;;;6.37;44.25;103109.50;2096314;28;20251;-71
2022/02/13 04:14:03;;;;;;;5.47;2.70;;;;;;;6.79;44.18;103189.97;2097100;28;20216;-71
2022/02/13 04:15:04;;;;;;;4.57;2.97;;;;;;;6.61;44.05;103185.84;2096657;28;20251;-71
2022/02/13 04:16:05;;;;;;;4.78;2.92;;;;;;;6.54;44.81;103186.41;2097106;28;20201;-71
2022/02/13 04:17:05;;;;;;;5.03;3.20;;;;;;;6.65;44.73;103189.50;2096846;28;20190;-71
2022/02/13 04:18:13;;;;;;;4.43;2.87;;;;;;;6.65;45.30;103193.06;2096986;28;20209;-71
2022/02/13 04:19:14;;;;;;;4.47;2.90;;;;;;;6.14;44.70;103100.06;2096349;28;20176;-71
2022/02/13 04:20:14;;;;;;;7.30;3.17;;;;;;;6.79;44.91;103188.03;2098129;28;20189;-71
2022/02/13 04:21:16;;;;;;;6.77;3.20;;;;;;;5.91;45.38;103038.34;2097337;28;20186;-71
2022/02/13 04:22:16;;;;;;;4.88;3.20;;;;;;;6.79;45.04;103187.19;2097592;28;20669;-71
2022/02/13 04:23:17;;;;;;;4.67;3.10;;;;;;;6.49;44.67;103142.56;2098015;28;20562;-71
2022/02/13 04:24:17;;;;;;;6.07;3.20;;;;;;;6.79;44.54;103195.47;2098531;28;20206;-71
2022/02/13 04:25:18;;;;;;;4.77;3.10;;;;;;;6.16;44.93;103097.75;2098325;28;20241;-71
2022/02/13 04:26:18;;;;;;;3.63;2.70;;;;;;;6.68;44.51;103184.13;2098471;28;20206;-71
2022/02/13 04:27:19;;;;;;;4.47;2.93;;;;;;;6.47;45.01;103179.84;2098152;28;20210;-71
2022/02/13 04:28:19;;;;;;;5.73;3.27;;;;;;;6.56;45.22;103188.81;2098371;28;20186;-71
2022/02/13 04:29:21;;;;;;;4.43;2.77;;;;;;;6.39;45.34;103154.03;2098022;28;20206;-71
2022/02/13 04:30:22;;;;;;;4.38;2.42;;;;;;;6.58;45.19;103189.28;2098091;28;20679;-71
2022/02/13 04:31:23;;;;;;;4.30;3.10;;;;;;;6.41;45.41;103162.72;2097393;28;20187;-71
2022/02/13 04:32:23;;;;;;;4.63;3.20;;;;;;;6.49;45.50;103186.63;2097509;28;20202;-71
2022/02/13 04:33:24;;;;;;;3.80;2.80;;;;;;;6.20;44.54;103170.28;2097901;28;20261;-71
2022/02/13 04:34:25;;;;;;;5.17;2.90;;;;;;;6.02;45.60;103162.56;2098026;28;20270;-71
2022/02/13 04:35:27;;;;;;;5.30;3.10;;;;;;;5.90;45.70;103171.56;2098347;28;20183;-71
2022/02/13 04:36:27;;;;;;;5.75;3.00;;;;;;;4.97;46.03;102997.25;2089304;28;20191;-71
2022/02/13 04:37:28;;;;;;;3.80;2.70;;;;;;;6.31;46.40;103196.22;2089463;28;20730;-71
2022/02/13 04:38:28;;;;;;;4.77;2.67;;;;;;;6.28;45.28;103190.59;2098326;28;20234;-71
2022/02/13 04:39:29;;;;;;;7.00;3.20;;;;;;;6.10;45.77;103184.47;2097832;28;20202;-71
2022/02/13 04:40:30;;;;;;;5.80;3.33;;;;;;;6.08;45.86;103180.47;2098307;28;20223;-71
2022/02/13 04:41:31;;;;;;;4.80;3.20;;;;;;;5.61;46.03;103124.09;2097025;28;20245;-71
2022/02/13 04:42:31;;;;;;;5.17;3.00;;;;;;;6.02;45.73;103198.34;2088357;28;20278;-71
2022/02/13 04:43:33;;;;;;;6.13;3.10;;;;;;;6.06;46.35;103188.28;2089130;28;20521;-71
2022/02/13 04:44:33;;;;;;;4.35;2.90;;;;;;;6.02;45.82;103192.84;2089120;28;20249;-71
2022/02/13 04:45:34;;;;;;;4.23;2.97;;;;;;;6.05;46.81;103197.69;2089350;28;20184;-71
2022/02/13 04:46:35;;;;;;;5.00;2.90;;;;;;;6.12;46.76;103193.22;2098195;28;20214;-71